Time;durP1;ratioP1;P1;durP2;ratioP2;P2;SDS_P1;SDS_P2;PMS_P1;PMS_P2;Temp;Humidity;BMP_temperature;BMP_pressure;BME280_temperature;BME280_humidity;BME280_pressure;Samples;Min_cycle;Max_cycle;Signal;HPM_P1;HPM_P2
2023/10/05 00:03:51;;;;;;;;;;;14.40;99.90;;;;;;5072823;28;20481;-49
2023/10/05 00:06:23;;;;;;;6.88;1.92;;;14.40;99.90;;;;;;5073173;28;19908;-50
2023/10/05 00:08:50;;;;;;;7.55;2.55;;;14.30;99.90;;;;;;5082338;28;20110;-50
2023/10/05 00:11:23;;;;;;;8.27;3.15;;;14.20;99.90;;;;;;5079829;28;20029;-52
2023/10/05 00:13:53;;;;;;;13.63;2.83;;;14.20;99.90;;;;;;5079184;28;20032;-49
2023/10/05 00:16:22;;;;;;;7.38;2.20;;;14.20;99.90;;;;;;5056944;28;20449;-49
2023/10/05 00:18:52;;;;;;;7.60;2.45;;;14.20;99.90;;;;;;5076535;28;20024;-49
2023/10/05 00:21:19;;;;;;;8.10;2.72;;;14.10;99.90;;;;;;5082553;28;20396;-50
2023/10/05 00:23:57;;;;;;;8.65;2.90;;;14.10;99.90;;;;;;5076879;28;20033;-50
2023/10/05 00:26:28;;;;;;;7.28;2.65;;;14.10;99.90;;;;;;5075382;28;20604;-54
2023/10/05 00:29:07;;;;;;;8.65;2.80;;;14.00;99.90;;;;;;5075204;28;20138;-50
2023/10/05 00:31:38;;;;;;;12.13;3.10;;;14.10;99.90;;;;;;5084167;28;20392;-54
2023/10/05 00:34:13;;;;;;;10.40;3.03;;;14.10;99.90;;;;;;5090852;28;20050;-51
2023/10/05 00:36:43;;;;;;;8.00;2.47;;;14.00;99.90;;;;;;5092030;28;20396;-54
2023/10/05 00:39:09;;;;;;;8.13;2.60;;;14.10;99.90;;;;;;5071246;28;20036;-54
2023/10/05 00:41:35;;;;;;;9.73;2.55;;;14.10;99.90;;;;;;5047099;28;20029;-52
2023/10/05 00:44:01;;;;;;;9.07;2.30;;;14.10;99.90;;;;;;5061734;28;20036;-53
2023/10/05 00:46:31;;;;;;;14.98;2.88;;;14.20;99.90;;;;;;5061706;28;20077;-50
2023/10/05 00:49:12;;;;;;;7.00;2.17;;;14.10;99.90;;;;;;5053645;28;20417;-50
2023/10/05 00:51:40;;;;;;;7.43;2.17;;;14.20;99.90;;;;;;5079649;28;20535;-54
2023/10/05 00:54:11;;;;;;;5.82;2.30;;;14.20;99.90;;;;;;5054076;28;20040;-51
2023/10/05 00:56:40;;;;;;;6.55;2.40;;;14.10;99.90;;;;;;5058671;28;20024;-51
2023/10/05 00:59:09;;;;;;;;;;;14.10;99.90;;;;;;5056570;28;20028;-50
2023/10/05 01:04:53;;;;;;;11.35;2.50;;;14.10;99.90;;;;;;5021694;28;20551;-53
2023/10/05 01:12:43;;;;;;;4.82;1.60;;;14.10;99.90;;;;;;5059854;28;20166;-54
2023/10/05 01:15:15;;;;;;;9.32;1.85;;;14.10;99.90;;;;;;5086687;28;20180;-51
2023/10/05 01:17:41;;;;;;;6.95;1.83;;;14.10;99.90;;;;;;5089106;28;20023;-54
2023/10/05 01:22:46;;;;;;;10.32;1.80;;;14.20;99.90;;;;;;5088824;28;20028;-54
2023/10/05 01:25:14;;;;;;;6.68;1.80;;;14.20;99.90;;;;;;5069648;28;20040;-51
2023/10/05 01:27:44;;;;;;;6.70;2.45;;;14.10;99.90;;;;;;5070496;28;20392;-50
2023/10/05 01:30:16;;;;;;;6.32;1.85;;;14.10;99.90;;;;;;5080517;28;20024;-54
2023/10/05 01:32:43;;;;;;;6.15;1.88;;;14.10;99.90;;;;;;5070255;28;20036;-54
2023/10/05 01:35:14;;;;;;;6.70;1.90;;;14.00;99.90;;;;;;5061887;28;20032;-54
2023/10/05 01:37:41;;;;;;;7.95;1.63;;;14.10;99.90;;;;;;5065053;28;20032;-54
2023/10/05 01:42:47;;;;;;;6.70;1.40;;;14.00;99.90;;;;;;5087990;28;20488;-53
2023/10/05 01:45:17;;;;;;;7.47;2.00;;;14.00;99.90;;;;;;5086792;28;20032;-53
2023/10/05 01:47:46;;;;;;;6.97;1.75;;;13.90;99.90;;;;;;5087879;28;20342;-53
2023/10/05 01:50:18;;;;;;;6.35;1.83;;;13.90;99.90;;;;;;5067252;28;20043;-52
2023/10/05 01:52:46;;;;;;;5.32;1.80;;;14.00;99.90;;;;;;5069716;28;20024;-53
2023/10/05 01:55:14;;;;;;;6.78;1.52;;;13.90;99.90;;;;;;5066193;28;20039;-52
2023/10/05 01:57:42;;;;;;;8.73;1.95;;;14.00;99.90;;;;;;5064553;28;20438;-52
2023/10/05 02:00:14;;;;;;;4.80;1.42;;;13.90;99.90;;;;;;5065647;28;20028;-50
2023/10/05 02:02:42;;;;;;;5.43;1.85;;;13.90;99.90;;;;;;5087507;28;20024;-54
2023/10/05 02:05:10;;;;;;;3.75;1.42;;;13.90;99.90;;;;;;5078670;28;20049;-50
2023/10/05 02:07:36;;;;;;;8.35;1.70;;;13.90;99.90;;;;;;5080823;28;20058;-52
2023/10/05 02:10:09;;;;;;;6.63;1.67;;;13.90;99.90;;;;;;5068008;28;20046;-53
2023/10/05 02:12:35;;;;;;;9.93;2.22;;;13.90;99.90;;;;;;5080167;28;20024;-54
2023/10/05 02:15:04;;;;;;;5.57;1.70;;;13.90;99.90;;;;;;5061242;28;20055;-53
2023/10/05 02:17:30;;;;;;;7.57;2.10;;;13.90;99.90;;;;;;5068190;28;20047;-53
2023/10/05 02:19:56;;;;;;;5.28;1.73;;;13.90;99.90;;;;;;5080557;28;20349;-53
2023/10/05 02:22:22;;;;;;;7.65;1.70;;;13.80;99.90;;;;;;5064802;28;20028;-54
2023/10/05 02:24:51;;;;;;;4.38;1.63;;;13.90;99.90;;;;;;5081655;28;20077;-50
2023/10/05 02:27:17;;;;;;;7.28;1.67;;;13.90;99.90;;;;;;5076844;28;20036;-52
2023/10/05 02:29:44;;;;;;;4.97;1.73;;;13.90;99.90;;;;;;5080571;28;20103;-53
2023/10/05 02:32:14;;;;;;;4.68;1.30;;;13.80;99.90;;;;;;5059317;28;20032;-53
2023/10/05 02:37:24;;;;;;;6.63;1.30;;;13.90;99.90;;;;;;5077768;28;20029;-51
2023/10/05 02:39:50;;;;;;;7.30;1.60;;;13.90;99.90;;;;;;5067578;28;20400;-51
2023/10/05 02:42:21;;;;;;;4.82;1.30;;;13.80;99.90;;;;;;5063353;28;20533;-52
2023/10/05 02:44:46;;;;;;;7.15;1.70;;;13.80;99.90;;;;;;5054051;28;20040;-52
2023/10/05 02:47:14;;;;;;;4.53;1.38;;;13.90;99.90;;;;;;5055667;28;20024;-53
2023/10/05 02:49:44;;;;;;;3.58;1.20;;;13.90;99.90;;;;;;5072249;28;20048;-51
2023/10/05 02:52:13;;;;;;;6.22;1.40;;;13.90;99.90;;;;;;5073850;28;20020;-50
2023/10/05 02:54:47;;;;;;;4.75;1.40;;;13.80;99.90;;;;;;5072714;28;20074;-54
2023/10/05 02:57:16;;;;;;;9.05;1.55;;;13.80;99.90;;;;;;5055878;28;20450;-54
2023/10/05 02:59:43;;;;;;;5.30;1.33;;;13.80;99.90;;;;;;5072551;28;20097;-53
2023/10/05 03:02:10;;;;;;;4.93;1.23;;;13.80;99.90;;;;;;5055814;28;20032;-52
2023/10/05 03:04:46;;;;;;;8.27;1.63;;;13.80;99.90;;;;;;5080669;28;20204;-53
2023/10/05 03:07:16;;;;;;;5.70;1.60;;;13.80;99.90;;;;;;5065653;28;20024;-54
2023/10/05 03:09:43;;;;;;;4.88;1.27;;;13.80;99.90;;;;;;5070849;28;20031;-50
2023/10/05 03:12:12;;;;;;;6.53;1.58;;;13.80;99.90;;;;;;5087465;28;20024;-51
2023/10/05 03:14:44;;;;;;;;;;;13.80;99.90;;;;;;5059833;28;20029;-51
2023/10/05 03:17:19;;;;;;;5.93;1.33;;;13.70;99.90;;;;;;5067213;28;19916;-52
2023/10/05 03:19:46;;;;;;;4.03;1.38;;;13.70;99.90;;;;;;5086319;28;20494;-53
2023/10/05 03:22:15;;;;;;;7.13;1.33;;;13.70;99.90;;;;;;5086900;28;20050;-52
2023/10/05 03:24:47;;;;;;;5.43;1.48;;;13.70;99.90;;;;;;5082601;28;20040;-53
2023/10/05 03:27:14;;;;;;;5.88;1.27;;;13.70;99.90;;;;;;5066906;28;20043;-51
2023/10/05 03:29:45;;;;;;;4.40;1.08;;;13.70;99.90;;;;;;5070297;28;20113;-50
2023/10/05 03:34:55;;;;;;;4.85;1.48;;;13.60;99.90;;;;;;5066445;28;20504;-50
2023/10/05 03:37:22;;;;;;;3.50;1.20;;;13.70;99.90;;;;;;5061472;28;20168;-54
2023/10/05 03:40:08;;;;;;;7.47;1.17;;;13.60;99.90;;;;;;5088083;28;20027;-50
2023/10/05 03:42:33;;;;;;;4.05;1.27;;;13.60;99.90;;;;;;5068675;28;20175;-53
2023/10/05 03:45:03;;;;;;;3.28;1.23;;;13.70;99.90;;;;;;5069358;28;20623;-53
2023/10/05 03:47:30;;;;;;;3.13;1.27;;;13.60;99.90;;;;;;5068131;28;20032;-53
2023/10/05 03:49:57;;;;;;;5.28;1.42;;;13.60;99.90;;;;;;5069782;28;20031;-52
2023/10/05 03:52:32;;;;;;;9.20;1.60;;;13.50;99.90;;;;;;5067322;28;20342;-52
2023/10/05 03:55:10;;;;;;;5.47;1.65;;;13.50;99.90;;;;;;5069636;28;20032;-53
2023/10/05 03:57:37;;;;;;;6.25;1.13;;;13.60;99.90;;;;;;5070834;28;20128;-53
2023/10/05 04:00:23;;;;;;;6.05;1.35;;;13.50;99.90;;;;;;5084249;28;20024;-49
2023/10/05 04:02:53;;;;;;;4.15;1.02;;;13.50;99.90;;;;;;5063816;28;20047;-53
2023/10/05 04:05:23;;;;;;;4.55;1.50;;;13.50;99.90;;;;;;5086069;28;20024;-50
2023/10/05 04:07:50;;;;;;;7.57;1.25;;;13.50;99.90;;;;;;5077411;28;20021;-53
2023/10/05 04:10:21;;;;;;;6.05;1.92;;;13.60;99.90;;;;;;5079431;28;20372;-50
2023/10/05 04:12:48;;;;;;;5.75;1.50;;;13.50;99.90;;;;;;5081390;28;20047;-53
2023/10/05 04:15:17;;;;;;;5.30;1.58;;;13.50;99.90;;;;;;5084227;28;20044;-50
2023/10/05 04:17:48;;;;;;;5.50;1.20;;;13.50;99.90;;;;;;5077352;28;20036;-53
2023/10/05 04:20:19;;;;;;;6.38;1.65;;;13.50;99.90;;;;;;5079932;28;20461;-49
2023/10/05 04:22:49;;;;;;;3.08;1.13;;;13.50;99.90;;;;;;5077531;28;20039;-54
2023/10/05 04:25:16;;;;;;;4.90;1.40;;;13.50;99.90;;;;;;5082705;28;20472;-54
2023/10/05 04:27:44;;;;;;;6.93;1.70;;;13.50;99.90;;;;;;5085602;28;20490;-54
2023/10/05 04:30:13;;;;;;;4.47;1.43;;;13.60;99.90;;;;;;5060656;28;20028;-53
2023/10/05 04:32:38;;;;;;;4.53;1.10;;;13.60;99.90;;;;;;5077484;28;20071;-53
2023/10/05 04:35:14;;;;;;;5.22;1.17;;;13.60;99.90;;;;;;5078563;28;20040;-51
2023/10/05 04:37:40;;;;;;;2.95;1.13;;;13.60;99.90;;;;;;5077461;28;20505;-53
2023/10/05 04:40:10;;;;;;;4.93;1.10;;;13.50;99.90;;;;;;5054187;28;20042;-53
2023/10/05 04:42:36;;;;;;;6.57;1.40;;;13.60;99.90;;;;;;5078500;28;20043;-54
2023/10/05 04:45:10;;;;;;;6.57;1.63;;;13.50;99.90;;;;;;5088518;28;20143;-54
2023/10/05 04:47:36;;;;;;;4.72;1.67;;;13.50;99.90;;;;;;5060390;28;20024;-54
2023/10/05 04:50:02;;;;;;;7.38;1.75;;;13.50;99.90;;;;;;5083197;28;20035;-53
2023/10/05 04:52:33;;;;;;;2.47;1.20;;;13.50;99.90;;;;;;5084956;28;20400;-53
2023/10/05 04:55:12;;;;;;;3.67;1.20;;;13.40;99.90;;;;;;5077834;28;20127;-51
2023/10/05 04:57:40;;;;;;;4.75;1.13;;;13.40;99.90;;;;;;5083749;28;20024;-52
2023/10/05 05:00:49;;;;;;;5.03;1.92;;;13.50;99.90;;;;;;5083423;28;20082;-53
2023/10/05 05:03:05;;;;;;;3.30;1.02;;;13.50;99.90;;;;;;5080795;28;20028;-53
2023/10/05 05:08:15;;;;;;;3.33;1.00;;;13.60;99.90;;;;;;5080048;28;20042;-51
2023/10/05 05:10:42;;;;;;;5.85;1.60;;;13.50;99.90;;;;;;5085430;28;20115;-51
2023/10/05 05:13:07;;;;;;;4.18;1.20;;;13.50;99.90;;;;;;5080552;28;20313;-52
2023/10/05 05:15:38;;;;;;;4.93;1.60;;;13.50;99.90;;;;;;5084516;28;20040;-49
2023/10/05 05:18:04;;;;;;;5.13;1.50;;;13.40;99.90;;;;;;5077943;28;20402;-52
2023/10/05 05:20:31;;;;;;;5.97;1.75;;;13.50;99.90;;;;;;5084559;28;20246;-53
2023/10/05 05:22:56;;;;;;;5.45;1.23;;;13.50;99.90;;;;;;5076845;28;20093;-53
2023/10/05 05:25:22;;;;;;;4.07;1.48;;;13.40;99.90;;;;;;5085382;28;20024;-53
2023/10/05 05:27:48;;;;;;;8.07;1.55;;;13.40;99.90;;;;;;5087070;28;20020;-51
2023/10/05 05:30:24;;;;;;;7.20;1.83;;;13.40;99.90;;;;;;5078597;28;20039;-53
2023/10/05 05:32:56;;;;;;;5.60;1.40;;;13.40;99.90;;;;;;5078109;28;20091;-49
2023/10/05 05:35:22;;;;;;;4.47;1.58;;;13.40;99.90;;;;;;5075018;28;20468;-49
2023/10/05 05:37:48;;;;;;;3.45;1.58;;;13.40;99.90;;;;;;5077726;28;20416;-48
2023/10/05 05:40:14;;;;;;;9.10;1.77;;;13.40;99.90;;;;;;5075608;28;20082;-50
2023/10/05 05:42:40;;;;;;;4.47;2.33;;;13.40;99.90;;;;;;5078898;28;20435;-50
2023/10/05 05:45:15;;;;;;;5.07;1.92;;;13.40;99.90;;;;;;5079389;28;20085;-48
2023/10/05 05:47:44;;;;;;;8.57;2.05;;;13.40;99.90;;;;;;5081502;28;20032;-51
2023/10/05 05:50:15;;;;;;;7.50;2.03;;;13.30;99.90;;;;;;5076018;28;20053;-49
2023/10/05 05:52:41;;;;;;;9.68;2.70;;;13.30;99.90;;;;;;5076063;28;20047;-48
2023/10/05 05:55:13;;;;;;;7.38;3.08;;;13.30;99.90;;;;;;5080934;28;20480;-48
2023/10/05 05:57:40;;;;;;;13.00;5.38;;;13.20;99.90;;;;;;5075706;28;20028;-52
2023/10/05 06:00:13;;;;;;;7.50;3.97;;;13.20;99.90;;;;;;5076483;28;20040;-51
2023/10/05 06:02:43;;;;;;;7.82;1.90;;;13.20;99.90;;;;;;5079931;28;20151;-52
2023/10/05 06:05:09;;;;;;;5.13;2.08;;;13.20;99.90;;;;;;5080221;28;20511;-50
2023/10/05 06:07:39;;;;;;;8.23;2.10;;;13.30;99.90;;;;;;5079018;28;20025;-50
2023/10/05 06:10:12;;;;;;;7.22;1.60;;;13.30;99.90;;;;;;5082019;28;20028;-49
2023/10/05 06:12:39;;;;;;;8.10;1.45;;;13.30;99.90;;;;;;5074656;28;20354;-48
2023/10/05 06:15:06;;;;;;;2.97;1.15;;;13.30;99.90;;;;;;5076631;28;20033;-48
2023/10/05 06:17:33;;;;;;;7.47;2.30;;;13.30;99.90;;;;;;5077777;28;20051;-54
2023/10/05 06:19:59;;;;;;;9.48;2.03;;;13.40;99.90;;;;;;5073472;28;20032;-53
2023/10/05 06:22:25;;;;;;;8.85;2.38;;;13.40;99.90;;;;;;5081650;28;20024;-52
2023/10/05 06:24:51;;;;;;;4.63;1.48;;;13.40;99.90;;;;;;5076836;28;20028;-53
2023/10/05 06:27:17;;;;;;;6.82;1.33;;;13.40;99.90;;;;;;5085926;28;20602;-53
2023/10/05 06:29:42;;;;;;;6.55;1.55;;;13.40;99.90;;;;;;5065653;28;20012;-51
2023/10/05 06:32:08;;;;;;;7.35;1.60;;;13.50;99.90;;;;;;5079549;28;20066;-53
2023/10/05 06:34:37;;;;;;;4.38;1.50;;;13.60;99.90;;;;;;5081051;28;20024;-53
2023/10/05 06:37:03;;;;;;;4.65;1.48;;;13.60;99.90;;;;;;5079156;28;20036;-51
2023/10/05 06:39:32;;;;;;;3.05;1.52;;;13.70;99.90;;;;;;5081859;28;20036;-49
2023/10/05 06:41:58;;;;;;;5.97;1.33;;;13.90;99.90;;;;;;5085722;28;20434;-51
2023/10/05 06:44:28;;;;;;;6.15;1.80;;;13.90;99.90;;;;;;5067455;28;20031;-50
2023/10/05 06:46:54;;;;;;;5.00;1.20;;;13.90;99.90;;;;;;5060525;28;20107;-53
2023/10/05 06:49:22;;;;;;;7.88;1.30;;;13.90;99.90;;;;;;5085253;28;20050;-51
2023/10/05 06:51:48;;;;;;;6.50;1.80;;;13.80;99.90;;;;;;5076976;28;20032;-50
2023/10/05 06:54:14;;;;;;;6.85;1.83;;;13.90;99.90;;;;;;5078481;28;20365;-53
2023/10/05 06:56:41;;;;;;;4.00;1.20;;;13.90;99.90;;;;;;5074676;28;20035;-53
2023/10/05 06:59:07;;;;;;;7.47;1.73;;;14.00;99.90;;;;;;5078619;28;20067;-53
2023/10/05 07:01:34;;;;;;;6.18;1.42;;;13.90;99.90;;;;;;5070352;28;20455;-49
2023/10/05 07:04:01;;;;;;;11.95;5.05;;;13.90;99.90;;;;;;5080000;28;20040;-52
2023/10/05 07:06:29;;;;;;;7.90;2.88;;;13.90;99.90;;;;;;5073261;28;20021;-52
2023/10/05 07:08:56;;;;;;;4.95;1.48;;;13.90;99.90;;;;;;5075828;28;20040;-49
2023/10/05 07:11:22;;;;;;;4.35;1.70;;;13.90;99.90;;;;;;5073241;28;20028;-52
2023/10/05 07:13:49;;;;;;;6.38;1.75;;;14.00;99.90;;;;;;5075221;28;20105;-53
2023/10/05 07:16:17;;;;;;;3.55;1.50;;;14.00;99.90;;;;;;5078840;28;20036;-50
2023/10/05 07:18:44;;;;;;;8.38;1.85;;;14.00;99.90;;;;;;5056053;28;20052;-51
2023/10/05 07:21:09;;;;;;;4.30;1.38;;;14.00;99.90;;;;;;5078141;28;20067;-48
2023/10/05 07:23:36;;;;;;;4.00;1.50;;;14.00;99.90;;;;;;5082421;28;20101;-53
2023/10/05 07:26:09;;;;;;;3.53;1.30;;;14.00;99.90;;;;;;5080004;28;20110;-52
2023/10/05 07:28:35;;;;;;;8.00;1.38;;;14.00;99.90;;;;;;5082244;28;20029;-51
2023/10/05 07:31:03;;;;;;;5.88;1.70;;;14.10;99.90;;;;;;5079898;28;20074;-52
2023/10/05 07:33:29;;;;;;;9.40;1.60;;;14.20;99.90;;;;;;5082594;28;20103;-50
2023/10/05 07:35:55;;;;;;;11.05;2.40;;;14.20;99.90;;;;;;5079900;28;20041;-51
2023/10/05 07:38:26;;;;;;;8.85;1.70;;;14.20;99.90;;;;;;5085674;28;20039;-52
2023/10/05 07:40:53;;;;;;;8.98;2.58;;;14.30;99.90;;;;;;5080293;28;20110;-51
2023/10/05 07:43:18;;;;;;;7.05;2.08;;;14.40;99.90;;;;;;5082013;28;20036;-53
2023/10/05 07:45:44;;;;;;;7.57;1.50;;;14.50;99.90;;;;;;5063502;28;20028;-53
2023/10/05 07:48:10;;;;;;;5.60;1.45;;;14.40;99.90;;;;;;5081001;28;20072;-49
2023/10/05 07:50:37;;;;;;;4.45;1.45;;;14.50;99.90;;;;;;5085810;28;20043;-50
2023/10/05 07:53:03;;;;;;;5.18;1.30;;;14.60;99.90;;;;;;5061894;28;20021;-52
2023/10/05 07:55:28;;;;;;;5.13;1.42;;;14.50;99.90;;;;;;5083430;28;20362;-53
2023/10/05 07:57:54;;;;;;;7.93;1.98;;;14.50;99.90;;;;;;5094085;28;20035;-52
2023/10/05 08:00:21;;;;;;;2.97;1.55;;;14.60;99.90;;;;;;5094162;28;20111;-53
2023/10/05 08:02:47;;;;;;;10.32;2.63;;;14.60;99.90;;;;;;5093915;28;20020;-53
2023/10/05 08:05:12;;;;;;;11.07;2.60;;;14.70;99.90;;;;;;5094354;28;20039;-53
2023/10/05 08:07:39;;;;;;;6.68;1.90;;;14.70;99.90;;;;;;5093664;28;20141;-53
2023/10/05 08:10:06;;;;;;;14.63;5.40;;;14.70;99.90;;;;;;5094000;28;20024;-52
2023/10/05 08:12:32;;;;;;;13.65;5.63;;;14.80;99.90;;;;;;5093733;28;20456;-52
2023/10/05 08:14:57;;;;;;;4.15;2.08;;;14.80;99.90;;;;;;5093843;28;20047;-54
2023/10/05 08:17:24;;;;;;;7.25;2.05;;;14.90;99.90;;;;;;5093708;28;20114;-51
2023/10/05 08:19:49;;;;;;;6.13;1.45;;;14.90;99.90;;;;;;5093450;28;20036;-54
2023/10/05 08:22:18;;;;;;;6.47;1.35;;;14.90;99.90;;;;;;5075263;28;20036;-54
2023/10/05 08:24:43;;;;;;;5.90;1.67;;;14.90;99.90;;;;;;5106580;22;20027;-54
2023/10/05 08:27:14;;;;;;;7.70;1.60;;;14.90;99.90;;;;;;5054730;28;20485;-54
2023/10/05 08:29:44;;;;;;;7.32;1.85;;;14.90;99.90;;;;;;5055148;28;20481;-54
2023/10/05 08:32:13;;;;;;;3.85;1.60;;;14.90;99.90;;;;;;5055161;28;20025;-51
2023/10/05 08:34:41;;;;;;;6.47;1.67;;;15.00;99.90;;;;;;5055904;28;20545;-54
2023/10/05 08:37:08;;;;;;;5.10;1.40;;;15.10;99.90;;;;;;5055233;28;20037;-54
2023/10/05 08:39:37;;;;;;;6.20;1.50;;;15.20;99.90;;;;;;5055009;28;20447;-50
2023/10/05 08:42:06;;;;;;;6.68;1.55;;;15.30;99.90;;;;;;5054905;28;20397;-53
2023/10/05 08:44:38;;;;;;;3.53;1.30;;;15.40;99.90;;;;;;5055106;28;20037;-53
2023/10/05 08:47:08;;;;;;;4.88;2.00;;;15.60;99.90;;;;;;5055173;28;20040;-54
2023/10/05 08:49:34;;;;;;;6.53;1.65;;;15.70;99.90;;;;;;5055013;28;20032;-54
2023/10/05 08:52:07;;;;;;;4.30;1.45;;;15.80;99.90;;;;;;5054981;28;20017;-52
2023/10/05 08:54:33;;;;;;;5.50;1.73;;;15.90;99.90;;;;;;5053952;28;20029;-53
2023/10/05 08:56:59;;;;;;;5.35;1.55;;;16.00;99.90;;;;;;5055031;28;20029;-51
2023/10/05 08:59:28;;;;;;;6.60;1.67;;;16.10;99.90;;;;;;5054569;28;20120;-55
2023/10/05 09:01:59;;;;;;;9.18;1.90;;;16.20;99.90;;;;;;5054532;28;20067;-54
2023/10/05 09:04:29;;;;;;;5.80;1.75;;;16.20;99.90;;;;;;5055066;28;20041;-54
2023/10/05 09:07:08;;;;;;;3.47;1.40;;;16.30;99.90;;;;;;5054593;28;20029;-54
2023/10/05 09:09:51;;;;;;;5.95;1.80;;;16.20;99.90;;;;;;5038274;28;20021;-54
2023/10/05 09:12:35;;;;;;;4.55;1.35;;;16.30;99.90;;;;;;5054264;28;20064;-55
2023/10/05 09:15:10;;;;;;;6.85;1.88;;;16.30;99.90;;;;;;5054507;28;20424;-53
2023/10/05 09:17:36;;;;;;;7.70;1.75;;;16.40;99.90;;;;;;5054462;28;20025;-52
2023/10/05 09:20:21;;;;;;;6.13;1.77;;;16.40;99.90;;;;;;5054405;28;20056;-55
2023/10/05 09:22:56;;;;;;;5.18;1.20;;;16.60;99.90;;;;;;5053286;28;20036;-52
2023/10/05 09:25:27;;;;;;;4.80;1.50;;;16.50;99.90;;;;;;5054435;28;20035;-53
2023/10/05 09:28:08;;;;;;;7.15;1.60;;;16.50;99.90;;;;;;5054286;28;20426;-53
2023/10/05 09:30:45;;;;;;;4.60;2.00;;;16.50;99.90;;;;;;5054309;28;20056;-52
2023/10/05 09:33:15;;;;;;;6.88;1.60;;;16.60;99.90;;;;;;5054316;28;20433;-54
2023/10/05 09:35:46;;;;;;;5.97;2.15;;;16.70;99.90;;;;;;5054469;28;20064;-52
2023/10/05 09:38:14;;;;;;;5.90;1.83;;;16.80;99.90;;;;;;5054344;28;20033;-53
2023/10/05 09:40:40;;;;;;;4.43;1.45;;;16.80;99.90;;;;;;5054399;28;20024;-52
2023/10/05 09:43:10;;;;;;;7.53;1.52;;;16.90;99.90;;;;;;5053746;28;20398;-51
2023/10/05 09:45:38;;;;;;;5.15;1.67;;;17.00;99.90;;;;;;5054144;28;20094;-53
2023/10/05 09:48:07;;;;;;;2.47;1.17;;;17.10;99.90;;;;;;5054349;28;20028;-51
2023/10/05 09:50:33;;;;;;;5.40;1.40;;;17.10;99.90;;;;;;5054222;28;20047;-52
2023/10/05 09:52:59;;;;;;;6.68;1.30;;;17.10;99.90;;;;;;5053868;28;20098;-53
2023/10/05 09:55:25;;;;;;;5.60;1.63;;;17.00;99.90;;;;;;5053709;28;20489;-52
2023/10/05 09:57:51;;;;;;;6.80;1.98;;;17.00;99.90;;;;;;5054425;28;20079;-51
2023/10/05 10:00:47;;;;;;;6.50;1.60;;;17.00;99.90;;;;;;5053919;28;20029;-53
2023/10/05 10:03:17;;;;;;;7.40;1.48;;;16.90;99.90;;;;;;5053364;28;20024;-52
2023/10/05 10:05:51;;;;;;;2.83;1.20;;;16.90;99.90;;;;;;5053348;28;20633;-55
2023/10/05 10:08:30;;;;;;;3.65;1.17;;;16.80;99.90;;;;;;5053493;28;20057;-53
2023/10/05 10:11:02;;;;;;;;;;;16.80;99.90;;;;;;5054224;28;20118;-55
2023/10/05 10:13:37;;;;;;;4.47;0.95;;;16.80;99.90;;;;;;5053550;28;19908;-52
2023/10/05 10:16:22;;;;;;;6.55;1.65;;;16.80;99.90;;;;;;5053315;28;20039;-55
2023/10/05 10:18:52;;;;;;;3.55;0.85;;;16.70;99.90;;;;;;5052746;28;20037;-51
2023/10/05 10:21:24;;;;;;;4.38;1.35;;;16.80;99.90;;;;;;5069226;28;20036;-55
2023/10/05 10:24:04;;;;;;;8.73;1.35;;;16.70;99.90;;;;;;5053208;28;20037;-53
2023/10/05 10:27:11;;;;;;;2.97;1.08;;;16.60;99.90;;;;;;5053387;28;20064;-55
2023/10/05 10:29:50;;;;;;;4.10;1.10;;;16.60;99.90;;;;;;5053218;28;20036;-55
2023/10/05 10:32:21;;;;;;;10.90;1.70;;;16.60;99.90;;;;;;5052857;28;20292;-53
2023/10/05 10:34:49;;;;;;;4.10;1.35;;;16.60;99.90;;;;;;5052621;28;20040;-50
2023/10/05 10:37:42;;;;;;;4.82;1.48;;;16.60;99.90;;;;;;5052386;28;20390;-52
2023/10/05 10:40:27;;;;;;;5.30;1.30;;;16.70;99.90;;;;;;5053402;28;20075;-53
2023/10/05 10:45:44;;;;;;;5.95;1.20;;;16.70;99.90;;;;;;5053580;28;20374;-52
2023/10/05 10:48:20;;;;;;;4.43;1.00;;;16.80;99.90;;;;;;5053599;28;20048;-52
2023/10/05 10:50:47;;;;;;;6.13;1.17;;;16.90;99.90;;;;;;5053887;28;20040;-51
2023/10/05 10:53:17;;;;;;;3.60;1.20;;;16.80;99.90;;;;;;5053732;28;20086;-52
2023/10/05 10:55:53;;;;;;;4.20;1.35;;;16.80;99.90;;;;;;5069396;28;20366;-51
2023/10/05 10:58:24;;;;;;;4.88;1.08;;;16.70;99.90;;;;;;5053922;28;20079;-52
2023/10/05 11:00:56;;;;;;;6.65;1.52;;;16.70;99.90;;;;;;5053652;28;20040;-51
2023/10/05 11:03:27;;;;;;;5.18;1.13;;;16.70;99.90;;;;;;5053585;28;20029;-51
2023/10/05 11:05:57;;;;;;;5.18;1.50;;;16.90;99.90;;;;;;5054016;28;20355;-50
2023/10/05 11:08:24;;;;;;;2.10;1.10;;;16.90;99.90;;;;;;5053677;28;20033;-50
2023/10/05 11:11:09;;;;;;;5.07;1.30;;;17.00;99.90;;;;;;5053567;28;20048;-51
2023/10/05 11:13:43;;;;;;;3.85;1.50;;;17.00;99.90;;;;;;5053240;28;20037;-50
2023/10/05 11:16:09;;;;;;;12.25;5.53;;;17.20;99.90;;;;;;5053833;28;20547;-50
2023/10/05 11:18:39;;;;;;;20.70;8.82;;;17.30;99.90;;;;;;5053005;28;20042;-49
2023/10/05 11:21:23;;;;;;;11.20;4.97;;;17.30;99.90;;;;;;5052781;28;20029;-54
2023/10/05 11:24:00;;;;;;;4.88;1.85;;;17.40;99.90;;;;;;5052605;28;20428;-53
2023/10/05 11:26:33;;;;;;;4.65;1.30;;;17.50;99.90;;;;;;5051181;28;20040;-54
2023/10/05 11:29:15;;;;;;;8.00;1.63;;;17.50;99.90;;;;;;5054356;28;20021;-54
2023/10/05 11:31:41;;;;;;;7.20;1.55;;;17.70;99.90;;;;;;5056059;28;20032;-55
2023/10/05 11:34:12;;;;;;;5.35;1.30;;;17.60;99.90;;;;;;5071631;28;20037;-50
2023/10/05 11:36:44;;;;;;;3.72;1.63;;;17.60;99.90;;;;;;5055822;28;20123;-55
2023/10/05 11:39:22;;;;;;;7.20;1.67;;;17.70;99.90;;;;;;5056449;28;20411;-53
2023/10/05 11:41:48;;;;;;;4.93;1.53;;;17.70;99.90;;;;;;5056561;28;20036;-50
2023/10/05 11:44:24;;;;;;;3.30;1.25;;;17.80;99.90;;;;;;5056770;28;20087;-53
2023/10/05 11:46:54;;;;;;;3.95;1.35;;;17.80;99.90;;;;;;5056509;28;20493;-52
2023/10/05 11:49:27;;;;;;;6.03;1.17;;;17.80;99.90;;;;;;5056681;28;20478;-50
2023/10/05 11:51:59;;;;;;;4.78;1.35;;;17.60;99.90;;;;;;5071921;28;20166;-55
2023/10/05 11:54:25;;;;;;;5.85;1.35;;;17.60;99.90;;;;;;5056033;28;20538;-51
2023/10/05 11:56:53;;;;;;;4.30;1.50;;;17.80;99.90;;;;;;5056631;28;20444;-52
2023/10/05 11:59:29;;;;;;;4.90;1.35;;;18.20;99.90;;;;;;5056250;28;20025;-52
2023/10/05 12:01:55;;;;;;;6.22;1.67;;;18.30;99.90;;;;;;5056173;28;20028;-51
2023/10/05 12:04:23;;;;;;;6.13;1.80;;;18.30;99.90;;;;;;5056134;28;20105;-51
2023/10/05 12:06:59;;;;;;;3.72;1.58;;;18.40;99.90;;;;;;5056083;28;20066;-51
2023/10/05 12:09:32;;;;;;;6.25;2.78;;;18.60;99.90;;;;;;5056162;28;20040;-51
2023/10/05 12:11:58;;;;;;;14.05;2.65;;;18.90;99.90;;;;;;5056149;28;20389;-53
2023/10/05 12:14:25;;;;;;;5.82;2.03;;;19.30;99.90;;;;;;5056551;28;20072;-54
2023/10/05 12:16:56;;;;;;;9.25;2.95;;;19.60;99.90;;;;;;5056575;28;20052;-50
2023/10/05 12:19:33;;;;;;;11.25;3.60;;;19.70;99.90;;;;;;5055774;28;20409;-50
2023/10/05 12:22:01;;;;;;;7.72;3.25;;;19.60;99.90;;;;;;5056211;28;20029;-54
2023/10/05 12:24:27;;;;;;;7.47;2.43;;;19.40;99.90;;;;;;5056103;28;20047;-50
2023/10/05 12:26:55;;;;;;;6.45;2.50;;;19.20;99.90;;;;;;5071548;28;20530;-51
2023/10/05 12:29:21;;;;;;;9.00;3.67;;;19.10;99.90;;;;;;5055517;28;20028;-52
2023/10/05 12:31:47;;;;;;;3.95;1.52;;;19.00;99.90;;;;;;5055689;28;20051;-54
2023/10/05 12:34:17;;;;;;;9.77;1.88;;;18.90;99.90;;;;;;5055976;28;20542;-52
2023/10/05 12:36:50;;;;;;;4.38;1.63;;;18.90;99.90;;;;;;5055907;28;20033;-55
2023/10/05 12:39:17;;;;;;;5.70;1.38;;;18.90;99.90;;;;;;5055086;28;20029;-53
2023/10/05 12:41:43;;;;;;;7.90;3.10;;;18.80;99.90;;;;;;5055876;28;20533;-51
2023/10/05 12:44:13;;;;;;;8.88;2.17;;;18.70;99.90;;;;;;5055726;28;20097;-49
2023/10/05 12:46:46;;;;;;;4.63;2.03;;;18.60;99.90;;;;;;5055934;28;20029;-53
2023/10/05 12:49:14;;;;;;;6.45;1.50;;;18.50;99.90;;;;;;5055159;28;20478;-55
2023/10/05 12:51:41;;;;;;;6.05;1.40;;;18.50;99.90;;;;;;5070660;28;20036;-55
2023/10/05 12:54:18;;;;;;;3.17;1.33;;;18.40;99.90;;;;;;5055265;28;20120;-54
2023/10/05 12:56:49;;;;;;;6.82;2.50;;;18.40;99.90;;;;;;5055070;28;20048;-55
2023/10/05 12:59:15;;;;;;;3.33;1.30;;;18.30;99.90;;;;;;5054554;28;20123;-50
2023/10/05 13:01:44;;;;;;;11.65;2.10;;;18.40;99.90;;;;;;5054676;28;20041;-54
2023/10/05 13:04:14;;;;;;;7.50;2.35;;;18.40;99.90;;;;;;5055089;28;20711;-55
2023/10/05 13:06:41;;;;;;;8.80;1.30;;;18.40;99.90;;;;;;5054930;28;20497;-55
2023/10/05 13:09:13;;;;;;;5.57;1.50;;;18.50;99.90;;;;;;5054034;28;20127;-53
2023/10/05 13:11:41;;;;;;;3.60;1.10;;;18.50;99.90;;;;;;5054657;28;20112;-56
2023/10/05 13:14:08;;;;;;;4.00;1.20;;;18.50;99.90;;;;;;5054378;28;20036;-55
2023/10/05 13:16:38;;;;;;;5.38;1.15;;;18.40;99.90;;;;;;5054750;28;20439;-54
2023/10/05 13:19:09;;;;;;;4.20;1.23;;;18.50;99.90;;;;;;5054341;28;20033;-53
2023/10/05 13:21:36;;;;;;;2.92;1.00;;;18.60;99.90;;;;;;5053922;28;20072;-53
2023/10/05 13:24:02;;;;;;;5.50;1.50;;;18.60;99.90;;;;;;5053518;28;20141;-54
2023/10/05 13:26:29;;;;;;;8.00;1.77;;;18.70;99.90;;;;;;5054485;28;20445;-55
2023/10/05 13:28:59;;;;;;;14.38;7.13;;;18.70;99.90;;;;;;5054039;28;20111;-52